sensor_id;sensor_type;location;lat;lon;timestamp;P1;durP1;ratioP1;P2;durP2;ratioP2
65202;SDS011;51788;45.124;38.966;2022-11-15T00:01:25;52.35;;;29.33;;
65202;SDS011;51788;45.124;38.966;2022-11-15T00:04:09;56.33;;;27.80;;
65202;SDS011;51788;45.124;38.966;2022-11-15T00:06:54;51.35;;;28.52;;
65202;SDS011;51788;45.124;38.966;2022-11-15T00:09:38;61.05;;;30.08;;
65202;SDS011;51788;45.124;38.966;2022-11-15T00:12:23;53.83;;;28.23;;
65202;SDS011;51788;45.124;38.966;2022-11-15T00:15:08;63.35;;;33.83;;
65202;SDS011;51788;45.124;38.966;2022-11-15T00:17:52;75.55;;;34.13;;
65202;SDS011;51788;45.124;38.966;2022-11-15T00:20:37;63.78;;;31.15;;
65202;SDS011;51788;45.124;38.966;2022-11-15T00:23:21;76.40;;;34.92;;
65202;SDS011;51788;45.124;38.966;2022-11-15T00:26:07;75.05;;;34.83;;
65202;SDS011;51788;45.124;38.966;2022-11-15T00:28:57;63.30;;;33.22;;
65202;SDS011;51788;45.124;38.966;2022-11-15T00:31:41;71.10;;;33.38;;
65202;SDS011;51788;45.124;38.966;2022-11-15T00:34:25;65.35;;;30.67;;
65202;SDS011;51788;45.124;38.966;2022-11-15T00:37:10;71.05;;;32.45;;
65202;SDS011;51788;45.124;38.966;2022-11-15T00:39:54;68.25;;;33.33;;
65202;SDS011;51788;45.124;38.966;2022-11-15T00:42:39;72.78;;;34.78;;
65202;SDS011;51788;45.124;38.966;2022-11-15T00:45:24;59.65;;;31.95;;
65202;SDS011;51788;45.124;38.966;2022-11-15T00:48:09;63.47;;;31.92;;
65202;SDS011;51788;45.124;38.966;2022-11-15T00:50:53;60.75;;;32.40;;
65202;SDS011;51788;45.124;38.966;2022-11-15T00:53:38;80.38;;;34.75;;
65202;SDS011;51788;45.124;38.966;2022-11-15T00:56:22;86.93;;;36.47;;
65202;SDS011;51788;45.124;38.966;2022-11-15T00:59:07;77.63;;;34.35;;
65202;SDS011;51788;45.124;38.966;2022-11-15T01:01:51;67.55;;;34.75;;
65202;SDS011;51788;45.124;38.966;2022-11-15T01:04:36;76.93;;;37.22;;
65202;SDS011;51788;45.124;38.966;2022-11-15T01:07:20;75.90;;;36.05;;
65202;SDS011;51788;45.124;38.966;2022-11-15T01:10:05;78.80;;;34.25;;
65202;SDS011;51788;45.124;38.966;2022-11-15T01:12:50;83.60;;;37.92;;
65202;SDS011;51788;45.124;38.966;2022-11-15T01:15:34;81.43;;;39.63;;
65202;SDS011;51788;45.124;38.966;2022-11-15T01:18:23;88.30;;;39.42;;
65202;SDS011;51788;45.124;38.966;2022-11-15T01:21:08;87.95;;;39.88;;
65202;SDS011;51788;45.124;38.966;2022-11-15T01:23:55;77.78;;;37.97;;
65202;SDS011;51788;45.124;38.966;2022-11-15T01:26:40;108.57;;;42.78;;
65202;SDS011;51788;45.124;38.966;2022-11-15T01:29:24;84.78;;;36.65;;
65202;SDS011;51788;45.124;38.966;2022-11-15T01:32:09;74.65;;;36.88;;
65202;SDS011;51788;45.124;38.966;2022-11-15T01:34:53;195.07;;;46.25;;
65202;SDS011;51788;45.124;38.966;2022-11-15T01:37:38;188.48;;;46.42;;
65202;SDS011;51788;45.124;38.966;2022-11-15T01:40:22;156.63;;;45.75;;
65202;SDS011;51788;45.124;38.966;2022-11-15T01:43:24;165.93;;;46.28;;
65202;SDS011;51788;45.124;38.966;2022-11-15T01:49:18;155.77;;;38.92;;
65202;SDS011;51788;45.124;38.966;2022-11-15T01:52:05;127.70;;;41.22;;
65202;SDS011;51788;45.124;38.966;2022-11-15T01:54:58;107.07;;;42.70;;
65202;SDS011;51788;45.124;38.966;2022-11-15T02:00:45;105.75;;;41.90;;
65202;SDS011;51788;45.124;38.966;2022-11-15T02:03:37;143.85;;;45.25;;
65202;SDS011;51788;45.124;38.966;2022-11-15T02:06:35;119.85;;;42.72;;
65202;SDS011;51788;45.124;38.966;2022-11-15T02:09:20;139.57;;;44.95;;
65202;SDS011;51788;45.124;38.966;2022-11-15T02:12:05;191.32;;;42.30;;
65202;SDS011;51788;45.124;38.966;2022-11-15T02:14:52;170.40;;;41.72;;
65202;SDS011;51788;45.124;38.966;2022-11-15T02:20:52;87.00;;;43.47;;
65202;SDS011;51788;45.124;38.966;2022-11-15T02:26:54;88.82;;;47.25;;
65202;SDS011;51788;45.124;38.966;2022-11-15T02:33:04;143.45;;;38.72;;
65202;SDS011;51788;45.124;38.966;2022-11-15T02:42:26;97.80;;;34.92;;
65202;SDS011;51788;45.124;38.966;2022-11-15T02:45:37;79.53;;;33.83;;
65202;SDS011;51788;45.124;38.966;2022-11-15T02:48:37;105.55;;;35.90;;
65202;SDS011;51788;45.124;38.966;2022-11-15T02:51:22;66.57;;;34.38;;
65202;SDS011;51788;45.124;38.966;2022-11-15T02:54:09;82.57;;;39.80;;
65202;SDS011;51788;45.124;38.966;2022-11-15T02:56:59;102.75;;;34.63;;
65202;SDS011;51788;45.124;38.966;2022-11-15T03:02:46;59.58;;;35.38;;
65202;SDS011;51788;45.124;38.966;2022-11-15T03:06:03;55.53;;;33.20;;
65202;SDS011;51788;45.124;38.966;2022-11-15T03:11:57;47.35;;;30.30;;
65202;SDS011;51788;45.124;38.966;2022-11-15T03:14:56;42.15;;;28.27;;
65202;SDS011;51788;45.124;38.966;2022-11-15T03:18:07;50.60;;;29.38;;
65202;SDS011;51788;45.124;38.966;2022-11-15T03:21:03;59.63;;;31.55;;
65202;SDS011;51788;45.124;38.966;2022-11-15T03:23:50;55.08;;;30.80;;
65202;SDS011;51788;45.124;38.966;2022-11-15T03:26:36;67.80;;;38.50;;
65202;SDS011;51788;45.124;38.966;2022-11-15T03:29:26;114.30;;;35.97;;
65202;SDS011;51788;45.124;38.966;2022-11-15T03:32:17;80.15;;;34.38;;
65202;SDS011;51788;45.124;38.966;2022-11-15T03:35:09;39.90;;;23.35;;
65202;SDS011;51788;45.124;38.966;2022-11-15T03:41:00;66.40;;;32.42;;
65202;SDS011;51788;45.124;38.966;2022-11-15T03:43:52;60.50;;;30.92;;
65202;SDS011;51788;45.124;38.966;2022-11-15T03:46:46;61.75;;;31.17;;
65202;SDS011;51788;45.124;38.966;2022-11-15T03:49:42;83.88;;;29.45;;
65202;SDS011;51788;45.124;38.966;2022-11-15T03:52:31;61.58;;;31.95;;
65202;SDS011;51788;45.124;38.966;2022-11-15T03:55:18;84.78;;;35.65;;
65202;SDS011;51788;45.124;38.966;2022-11-15T03:58:04;52.20;;;28.45;;
65202;SDS011;51788;45.124;38.966;2022-11-15T04:00:49;59.75;;;26.88;;
65202;SDS011;51788;45.124;38.966;2022-11-15T04:03:33;57.08;;;26.80;;
65202;SDS011;51788;45.124;38.966;2022-11-15T04:06:18;62.83;;;31.70;;
65202;SDS011;51788;45.124;38.966;2022-11-15T04:09:02;75.22;;;33.08;;
65202;SDS011;51788;45.124;38.966;2022-11-15T04:11:47;90.70;;;33.97;;
65202;SDS011;51788;45.124;38.966;2022-11-15T04:14:31;79.68;;;29.83;;
65202;SDS011;51788;45.124;38.966;2022-11-15T04:17:16;103.72;;;22.42;;
65202;SDS011;51788;45.124;38.966;2022-11-15T04:20:00;66.60;;;30.48;;
65202;SDS011;51788;45.124;38.966;2022-11-15T04:23:25;49.65;;;27.63;;
65202;SDS011;51788;45.124;38.966;2022-11-15T04:29:11;102.18;;;27.98;;
65202;SDS011;51788;45.124;38.966;2022-11-15T04:32:14;54.45;;;31.02;;
65202;SDS011;51788;45.124;38.966;2022-11-15T04:34:59;75.68;;;28.75;;
65202;SDS011;51788;45.124;38.966;2022-11-15T04:37:43;74.50;;;31.40;;
65202;SDS011;51788;45.124;38.966;2022-11-15T04:40:28;67.38;;;31.35;;
65202;SDS011;51788;45.124;38.966;2022-11-15T04:43:12;81.45;;;32.28;;
65202;SDS011;51788;45.124;38.966;2022-11-15T04:45:57;86.30;;;31.13;;
65202;SDS011;51788;45.124;38.966;2022-11-15T04:48:41;128.52;;;34.05;;
65202;SDS011;51788;45.124;38.966;2022-11-15T04:51:26;100.75;;;37.20;;
65202;SDS011;51788;45.124;38.966;2022-11-15T04:54:10;150.85;;;36.30;;
65202;SDS011;51788;45.124;38.966;2022-11-15T04:56:55;89.10;;;33.90;;
65202;SDS011;51788;45.124;38.966;2022-11-15T04:59:39;163.93;;;42.85;;
65202;SDS011;51788;45.124;38.966;2022-11-15T05:02:24;165.20;;;43.28;;
65202;SDS011;51788;45.124;38.966;2022-11-15T05:05:28;108.85;;;40.92;;
65202;SDS011;51788;45.124;38.966;2022-11-15T05:08:12;166.43;;;42.25;;
65202;SDS011;51788;45.124;38.966;2022-11-15T05:10:58;125.55;;;41.35;;
65202;SDS011;51788;45.124;38.966;2022-11-15T05:13:43;116.45;;;37.88;;
65202;SDS011;51788;45.124;38.966;2022-11-15T05:16:27;105.78;;;35.70;;
65202;SDS011;51788;45.124;38.966;2022-11-15T05:19:12;140.10;;;40.60;;
65202;SDS011;51788;45.124;38.966;2022-11-15T05:21:56;132.80;;;34.30;;
65202;SDS011;51788;45.124;38.966;2022-11-15T05:24:41;95.68;;;34.42;;
65202;SDS011;51788;45.124;38.966;2022-11-15T05:27:25;106.35;;;42.58;;
65202;SDS011;51788;45.124;38.966;2022-11-15T05:30:10;113.50;;;35.13;;
65202;SDS011;51788;45.124;38.966;2022-11-15T05:32:54;91.50;;;35.90;;
65202;SDS011;51788;45.124;38.966;2022-11-15T05:35:41;95.93;;;31.10;;
65202;SDS011;51788;45.124;38.966;2022-11-15T05:38:29;60.25;;;25.20;;
65202;SDS011;51788;45.124;38.966;2022-11-15T05:41:14;78.13;;;26.10;;
65202;SDS011;51788;45.124;38.966;2022-11-15T05:44:01;63.75;;;27.15;;
65202;SDS011;51788;45.124;38.966;2022-11-15T05:46:49;85.53;;;30.77;;
65202;SDS011;51788;45.124;38.966;2022-11-15T05:49:39;57.63;;;24.88;;
65202;SDS011;51788;45.124;38.966;2022-11-15T05:52:27;60.70;;;26.38;;
65202;SDS011;51788;45.124;38.966;2022-11-15T05:55:14;47.17;;;23.60;;
65202;SDS011;51788;45.124;38.966;2022-11-15T05:57:59;72.63;;;25.33;;
65202;SDS011;51788;45.124;38.966;2022-11-15T06:00:44;54.92;;;18.20;;
65202;SDS011;51788;45.124;38.966;2022-11-15T06:03:29;42.38;;;21.48;;
65202;SDS011;51788;45.124;38.966;2022-11-15T06:06:13;64.97;;;24.63;;
65202;SDS011;51788;45.124;38.966;2022-11-15T06:08:58;57.03;;;23.50;;
65202;SDS011;51788;45.124;38.966;2022-11-15T06:11:42;48.95;;;23.00;;
65202;SDS011;51788;45.124;38.966;2022-11-15T06:14:27;58.50;;;25.58;;
65202;SDS011;51788;45.124;38.966;2022-11-15T06:17:11;60.70;;;25.98;;
65202;SDS011;51788;45.124;38.966;2022-11-15T06:19:56;43.47;;;21.75;;
65202;SDS011;51788;45.124;38.966;2022-11-15T06:22:41;57.60;;;26.00;;
65202;SDS011;51788;45.124;38.966;2022-11-15T06:25:26;56.38;;;23.80;;
65202;SDS011;51788;45.124;38.966;2022-11-15T06:28:11;51.22;;;21.00;;
65202;SDS011;51788;45.124;38.966;2022-11-15T06:30:56;52.88;;;23.88;;
65202;SDS011;51788;45.124;38.966;2022-11-15T06:33:46;43.08;;;22.38;;
65202;SDS011;51788;45.124;38.966;2022-11-15T06:36:30;49.67;;;22.30;;
65202;SDS011;51788;45.124;38.966;2022-11-15T06:39:15;40.13;;;21.85;;
65202;SDS011;51788;45.124;38.966;2022-11-15T06:41:59;45.95;;;24.58;;
65202;SDS011;51788;45.124;38.966;2022-11-15T06:44:44;52.35;;;27.65;;
65202;SDS011;51788;45.124;38.966;2022-11-15T06:47:28;42.22;;;23.08;;
65202;SDS011;51788;45.124;38.966;2022-11-15T06:50:13;54.53;;;25.35;;
65202;SDS011;51788;45.124;38.966;2022-11-15T06:53:00;39.45;;;22.65;;
65202;SDS011;51788;45.124;38.966;2022-11-15T06:55:46;57.70;;;26.02;;
65202;SDS011;51788;45.124;38.966;2022-11-15T06:58:30;43.70;;;22.00;;
65202;SDS011;51788;45.124;38.966;2022-11-15T07:01:15;41.45;;;23.00;;
65202;SDS011;51788;45.124;38.966;2022-11-15T07:03:59;46.42;;;22.10;;
65202;SDS011;51788;45.124;38.966;2022-11-15T07:06:46;64.55;;;22.80;;
65202;SDS011;51788;45.124;38.966;2022-11-15T07:09:31;34.22;;;20.60;;
65202;SDS011;51788;45.124;38.966;2022-11-15T07:12:15;50.20;;;25.08;;
65202;SDS011;51788;45.124;38.966;2022-11-15T07:15:00;37.90;;;22.85;;
65202;SDS011;51788;45.124;38.966;2022-11-15T07:17:44;36.80;;;21.50;;
65202;SDS011;51788;45.124;38.966;2022-11-15T07:20:29;45.03;;;22.08;;
65202;SDS011;51788;45.124;38.966;2022-11-15T07:23:14;40.30;;;23.92;;
65202;SDS011;51788;45.124;38.966;2022-11-15T07:25:58;41.78;;;22.70;;
65202;SDS011;51788;45.124;38.966;2022-11-15T07:28:43;52.95;;;21.45;;
65202;SDS011;51788;45.124;38.966;2022-11-15T07:31:28;39.03;;;21.83;;
65202;SDS011;51788;45.124;38.966;2022-11-15T07:34:12;47.00;;;22.95;;
65202;SDS011;51788;45.124;38.966;2022-11-15T07:36:57;34.78;;;20.23;;
65202;SDS011;51788;45.124;38.966;2022-11-15T07:39:41;53.33;;;30.25;;
65202;SDS011;51788;45.124;38.966;2022-11-15T07:42:26;36.55;;;18.75;;
65202;SDS011;51788;45.124;38.966;2022-11-15T07:48:13;50.58;;;29.77;;
65202;SDS011;51788;45.124;38.966;2022-11-15T07:50:58;59.30;;;28.23;;
65202;SDS011;51788;45.124;38.966;2022-11-15T07:53:43;54.92;;;25.27;;
65202;SDS011;51788;45.124;38.966;2022-11-15T07:56:28;68.03;;;28.02;;
65202;SDS011;51788;45.124;38.966;2022-11-15T07:59:12;53.63;;;26.58;;
65202;SDS011;51788;45.124;38.966;2022-11-15T08:01:57;106.65;;;42.63;;
65202;SDS011;51788;45.124;38.966;2022-11-15T08:04:41;59.97;;;26.50;;
65202;SDS011;51788;45.124;38.966;2022-11-15T08:07:28;87.13;;;39.45;;
65202;SDS011;51788;45.124;38.966;2022-11-15T08:10:14;63.53;;;31.40;;
65202;SDS011;51788;45.124;38.966;2022-11-15T08:13:01;57.80;;;31.17;;
65202;SDS011;51788;45.124;38.966;2022-11-15T08:16:00;61.17;;;33.25;;
65202;SDS011;51788;45.124;38.966;2022-11-15T08:18:45;47.17;;;25.75;;
65202;SDS011;51788;45.124;38.966;2022-11-15T08:21:30;66.63;;;34.00;;
65202;SDS011;51788;45.124;38.966;2022-11-15T08:24:15;61.90;;;31.77;;
65202;SDS011;51788;45.124;38.966;2022-11-15T08:26:59;53.13;;;25.90;;
65202;SDS011;51788;45.124;38.966;2022-11-15T08:29:44;51.55;;;28.70;;
65202;SDS011;51788;45.124;38.966;2022-11-15T08:32:30;58.58;;;29.70;;
65202;SDS011;51788;45.124;38.966;2022-11-15T08:35:15;76.63;;;26.23;;
65202;SDS011;51788;45.124;38.966;2022-11-15T08:38:00;55.65;;;26.63;;
65202;SDS011;51788;45.124;38.966;2022-11-15T08:40:45;57.58;;;24.35;;
65202;SDS011;51788;45.124;38.966;2022-11-15T08:43:30;41.50;;;21.50;;
65202;SDS011;51788;45.124;38.966;2022-11-15T08:46:14;39.97;;;21.88;;
65202;SDS011;51788;45.124;38.966;2022-11-15T08:48:59;40.10;;;18.02;;
65202;SDS011;51788;45.124;38.966;2022-11-15T08:51:44;31.25;;;20.10;;
65202;SDS011;51788;45.124;38.966;2022-11-15T08:54:29;30.77;;;18.63;;
65202;SDS011;51788;45.124;38.966;2022-11-15T08:57:13;23.42;;;13.05;;
65202;SDS011;51788;45.124;38.966;2022-11-15T08:59:58;28.75;;;15.95;;
65202;SDS011;51788;45.124;38.966;2022-11-15T09:02:42;19.00;;;13.05;;
65202;SDS011;51788;45.124;38.966;2022-11-15T09:05:26;20.63;;;10.65;;
65202;SDS011;51788;45.124;38.966;2022-11-15T09:08:11;21.88;;;10.73;;
65202;SDS011;51788;45.124;38.966;2022-11-15T09:10:56;23.75;;;12.63;;
65202;SDS011;51788;45.124;38.966;2022-11-15T09:13:41;17.77;;;10.20;;
65202;SDS011;51788;45.124;38.966;2022-11-15T09:16:25;17.30;;;11.02;;
65202;SDS011;51788;45.124;38.966;2022-11-15T09:19:10;18.90;;;10.63;;
65202;SDS011;51788;45.124;38.966;2022-11-15T09:21:55;30.27;;;10.82;;
65202;SDS011;51788;45.124;38.966;2022-11-15T09:24:39;18.23;;;9.07;;
65202;SDS011;51788;45.124;38.966;2022-11-15T09:27:27;17.02;;;8.88;;
65202;SDS011;51788;45.124;38.966;2022-11-15T09:30:13;12.90;;;7.82;;
65202;SDS011;51788;45.124;38.966;2022-11-15T09:32:57;11.73;;;9.02;;
65202;SDS011;51788;45.124;38.966;2022-11-15T09:35:42;23.65;;;9.80;;
65202;SDS011;51788;45.124;38.966;2022-11-15T09:38:26;19.92;;;9.82;;
65202;SDS011;51788;45.124;38.966;2022-11-15T09:49:52;11.80;;;9.98;;
65202;SDS011;51788;45.124;38.966;2022-11-15T09:52:25;16.75;;;10.57;;
65202;SDS011;51788;45.124;38.966;2022-11-15T09:54:52;15.20;;;7.97;;
65202;SDS011;51788;45.124;38.966;2022-11-15T09:57:32;16.90;;;6.78;;
65202;SDS011;51788;45.124;38.966;2022-11-15T10:00:38;12.18;;;6.25;;
65202;SDS011;51788;45.124;38.966;2022-11-15T10:05:51;10.20;;;6.88;;
65202;SDS011;51788;45.124;38.966;2022-11-15T10:11:16;53.75;;;9.38;;
65202;SDS011;51788;45.124;38.966;2022-11-15T10:13:46;18.88;;;7.93;;
65202;SDS011;51788;45.124;38.966;2022-11-15T10:18:55;20.70;;;8.20;;
65202;SDS011;51788;45.124;38.966;2022-11-15T10:21:38;8.23;;;6.88;;
65202;SDS011;51788;45.124;38.966;2022-11-15T10:24:17;13.85;;;8.40;;
65202;SDS011;51788;45.124;38.966;2022-11-15T10:26:46;12.85;;;8.27;;
65202;SDS011;51788;45.124;38.966;2022-11-15T10:29:19;27.70;;;7.95;;
65202;SDS011;51788;45.124;38.966;2022-11-15T10:31:46;10.93;;;7.07;;
65202;SDS011;51788;45.124;38.966;2022-11-15T10:34:14;21.95;;;9.57;;
65202;SDS011;51788;45.124;38.966;2022-11-15T10:36:57;11.13;;;8.02;;
65202;SDS011;51788;45.124;38.966;2022-11-15T10:39:25;18.67;;;8.90;;
65202;SDS011;51788;45.124;38.966;2022-11-15T10:41:51;19.17;;;8.52;;
65202;SDS011;51788;45.124;38.966;2022-11-15T10:44:19;11.50;;;7.90;;
65202;SDS011;51788;45.124;38.966;2022-11-15T10:46:48;14.63;;;9.13;;
65202;SDS011;51788;45.124;38.966;2022-11-15T10:51:48;14.63;;;7.20;;
65202;SDS011;51788;45.124;38.966;2022-11-15T10:54:24;11.05;;;8.43;;
65202;SDS011;51788;45.124;38.966;2022-11-15T10:57:05;10.23;;;6.90;;
65202;SDS011;51788;45.124;38.966;2022-11-15T10:59:42;7.25;;;6.55;;
65202;SDS011;51788;45.124;38.966;2022-11-15T11:02:27;11.10;;;6.40;;
65202;SDS011;51788;45.124;38.966;2022-11-15T11:04:55;10.38;;;6.25;;
65202;SDS011;51788;45.124;38.966;2022-11-15T11:07:24;15.70;;;6.70;;
65202;SDS011;51788;45.124;38.966;2022-11-15T11:12:29;12.88;;;6.68;;
65202;SDS011;51788;45.124;38.966;2022-11-15T11:14:57;11.25;;;7.13;;
65202;SDS011;51788;45.124;38.966;2022-11-15T11:17:29;10.98;;;8.07;;
65202;SDS011;51788;45.124;38.966;2022-11-15T11:34:15;9.30;;;6.93;;
65202;SDS011;51788;45.124;38.966;2022-11-15T11:37:17;8.07;;;6.82;;
65202;SDS011;51788;45.124;38.966;2022-11-15T11:46:08;11.50;;;7.60;;
65202;SDS011;51788;45.124;38.966;2022-11-15T11:48:45;9.35;;;6.63;;
65202;SDS011;51788;45.124;38.966;2022-11-15T11:53:56;10.40;;;6.10;;
65202;SDS011;51788;45.124;38.966;2022-11-15T11:56:29;15.48;;;6.75;;
65202;SDS011;51788;45.124;38.966;2022-11-15T11:59:05;14.05;;;7.68;;
65202;SDS011;51788;45.124;38.966;2022-11-15T12:01:42;13.50;;;8.80;;
65202;SDS011;51788;45.124;38.966;2022-11-15T12:04:17;7.60;;;6.78;;
65202;SDS011;51788;45.124;38.966;2022-11-15T12:06:48;10.25;;;8.52;;
65202;SDS011;51788;45.124;38.966;2022-11-15T12:09:22;21.75;;;8.40;;
65202;SDS011;51788;45.124;38.966;2022-11-15T12:17:19;11.32;;;7.72;;
65202;SDS011;51788;45.124;38.966;2022-11-15T12:19:52;10.45;;;8.52;;
65202;SDS011;51788;45.124;38.966;2022-11-15T12:22:39;9.43;;;7.50;;
65202;SDS011;51788;45.124;38.966;2022-11-15T12:27:50;12.02;;;7.22;;
65202;SDS011;51788;45.124;38.966;2022-11-15T12:30:54;15.48;;;10.35;;
65202;SDS011;51788;45.124;38.966;2022-11-15T12:34:12;13.95;;;9.55;;
65202;SDS011;51788;45.124;38.966;2022-11-15T12:41:21;11.20;;;8.38;;
65202;SDS011;51788;45.124;38.966;2022-11-15T12:43:48;23.27;;;7.35;;
65202;SDS011;51788;45.124;38.966;2022-11-15T12:46:21;17.90;;;8.32;;
65202;SDS011;51788;45.124;38.966;2022-11-15T12:49:09;17.38;;;8.15;;
65202;SDS011;51788;45.124;38.966;2022-11-15T13:25:26;12.70;;;9.18;;
65202;SDS011;51788;45.124;38.966;2022-11-15T13:28:08;19.73;;;11.05;;
65202;SDS011;51788;45.124;38.966;2022-11-15T13:33:14;18.23;;;9.52;;
65202;SDS011;51788;45.124;38.966;2022-11-15T13:35:41;19.50;;;11.15;;
65202;SDS011;51788;45.124;38.966;2022-11-15T13:38:17;18.00;;;11.98;;
65202;SDS011;51788;45.124;38.966;2022-11-15T13:40:51;25.65;;;12.10;;
65202;SDS011;51788;45.124;38.966;2022-11-15T13:48:38;14.25;;;10.98;;
65202;SDS011;51788;45.124;38.966;2022-11-15T13:51:06;22.08;;;11.75;;
65202;SDS011;51788;45.124;38.966;2022-11-15T13:53:39;22.77;;;11.63;;
65202;SDS011;51788;45.124;38.966;2022-11-15T13:56:08;37.85;;;11.98;;
65202;SDS011;51788;45.124;38.966;2022-11-15T13:58:36;39.08;;;13.52;;
65202;SDS011;51788;45.124;38.966;2022-11-15T14:01:04;37.60;;;12.35;;
65202;SDS011;51788;45.124;38.966;2022-11-15T14:03:32;27.75;;;13.98;;
65202;SDS011;51788;45.124;38.966;2022-11-15T14:06:04;34.17;;;13.17;;
65202;SDS011;51788;45.124;38.966;2022-11-15T14:08:32;59.20;;;15.20;;
65202;SDS011;51788;45.124;38.966;2022-11-15T14:11:18;28.63;;;13.23;;
65202;SDS011;51788;45.124;38.966;2022-11-15T14:16:33;19.98;;;12.52;;
65202;SDS011;51788;45.124;38.966;2022-11-15T14:19:04;23.60;;;13.45;;
65202;SDS011;51788;45.124;38.966;2022-11-15T14:21:31;29.20;;;12.48;;
65202;SDS011;51788;45.124;38.966;2022-11-15T14:26:43;21.67;;;12.10;;
65202;SDS011;51788;45.124;38.966;2022-11-15T14:31:52;20.75;;;11.02;;
65202;SDS011;51788;45.124;38.966;2022-11-15T14:34:31;29.98;;;12.02;;
65202;SDS011;51788;45.124;38.966;2022-11-15T14:36:57;21.73;;;11.10;;
65202;SDS011;51788;45.124;38.966;2022-11-15T14:39:23;20.20;;;12.77;;
65202;SDS011;51788;45.124;38.966;2022-11-15T14:41:50;19.48;;;12.10;;
65202;SDS011;51788;45.124;38.966;2022-11-15T14:44:16;24.95;;;13.90;;
65202;SDS011;51788;45.124;38.966;2022-11-15T14:46:43;24.15;;;13.68;;
65202;SDS011;51788;45.124;38.966;2022-11-15T14:49:09;26.10;;;13.23;;
65202;SDS011;51788;45.124;38.966;2022-11-15T14:51:35;27.15;;;13.60;;
65202;SDS011;51788;45.124;38.966;2022-11-15T14:54:01;29.17;;;14.23;;
65202;SDS011;51788;45.124;38.966;2022-11-15T14:56:27;40.20;;;15.35;;
65202;SDS011;51788;45.124;38.966;2022-11-15T14:58:53;57.83;;;17.35;;
65202;SDS011;51788;45.124;38.966;2022-11-15T15:03:50;36.38;;;16.88;;
65202;SDS011;51788;45.124;38.966;2022-11-15T15:06:19;45.45;;;15.52;;
65202;SDS011;51788;45.124;38.966;2022-11-15T15:08:45;28.80;;;15.93;;
65202;SDS011;51788;45.124;38.966;2022-11-15T15:11:21;34.75;;;15.88;;
65202;SDS011;51788;45.124;38.966;2022-11-15T15:13:47;22.83;;;13.00;;
65202;SDS011;51788;45.124;38.966;2022-11-15T15:16:13;29.85;;;14.55;;
65202;SDS011;51788;45.124;38.966;2022-11-15T15:18:39;57.85;;;18.17;;
65202;SDS011;51788;45.124;38.966;2022-11-15T15:21:19;48.63;;;17.33;;
65202;SDS011;51788;45.124;38.966;2022-11-15T15:23:47;37.15;;;16.90;;
65202;SDS011;51788;45.124;38.966;2022-11-15T15:26:14;38.60;;;17.70;;
65202;SDS011;51788;45.124;38.966;2022-11-15T15:28:40;37.72;;;16.00;;
65202;SDS011;51788;45.124;38.966;2022-11-15T15:31:06;39.20;;;15.88;;
65202;SDS011;51788;45.124;38.966;2022-11-15T15:33:34;47.53;;;18.38;;
65202;SDS011;51788;45.124;38.966;2022-11-15T15:36:00;66.85;;;18.73;;
65202;SDS011;51788;45.124;38.966;2022-11-15T15:38:26;55.03;;;17.33;;
65202;SDS011;51788;45.124;38.966;2022-11-15T15:40:52;54.53;;;19.13;;
65202;SDS011;51788;45.124;38.966;2022-11-15T15:43:19;47.05;;;19.50;;
65202;SDS011;51788;45.124;38.966;2022-11-15T15:45:46;39.95;;;18.92;;
65202;SDS011;51788;45.124;38.966;2022-11-15T15:48:12;62.47;;;19.90;;
65202;SDS011;51788;45.124;38.966;2022-11-15T15:50:42;63.80;;;19.38;;
65202;SDS011;51788;45.124;38.966;2022-11-15T15:53:09;61.92;;;23.35;;
65202;SDS011;51788;45.124;38.966;2022-11-15T15:55:36;56.28;;;22.05;;
65202;SDS011;51788;45.124;38.966;2022-11-15T15:58:03;66.78;;;24.08;;
65202;SDS011;51788;45.124;38.966;2022-11-15T16:00:30;68.40;;;23.17;;
65202;SDS011;51788;45.124;38.966;2022-11-15T16:02:58;64.30;;;21.02;;
65202;SDS011;51788;45.124;38.966;2022-11-15T16:05:24;56.60;;;19.73;;
65202;SDS011;51788;45.124;38.966;2022-11-15T16:07:50;50.30;;;20.73;;
65202;SDS011;51788;45.124;38.966;2022-11-15T16:12:57;49.10;;;22.88;;
65202;SDS011;51788;45.124;38.966;2022-11-15T16:15:24;53.70;;;23.02;;
65202;SDS011;51788;45.124;38.966;2022-11-15T16:17:52;39.55;;;20.73;;
65202;SDS011;51788;45.124;38.966;2022-11-15T16:23:12;77.82;;;19.98;;
65202;SDS011;51788;45.124;38.966;2022-11-15T16:30:48;68.68;;;19.98;;
65202;SDS011;51788;45.124;38.966;2022-11-15T16:33:14;79.40;;;19.90;;
65202;SDS011;51788;45.124;38.966;2022-11-15T16:35:42;28.67;;;16.30;;
65202;SDS011;51788;45.124;38.966;2022-11-15T16:38:13;43.80;;;19.08;;
65202;SDS011;51788;45.124;38.966;2022-11-15T16:40:43;58.70;;;19.17;;
65202;SDS011;51788;45.124;38.966;2022-11-15T16:43:09;45.13;;;18.63;;
65202;SDS011;51788;45.124;38.966;2022-11-15T16:45:35;40.75;;;20.35;;
65202;SDS011;51788;45.124;38.966;2022-11-15T16:48:02;54.67;;;21.55;;
65202;SDS011;51788;45.124;38.966;2022-11-15T16:50:30;60.42;;;20.88;;
65202;SDS011;51788;45.124;38.966;2022-11-15T16:52:59;33.85;;;20.58;;
65202;SDS011;51788;45.124;38.966;2022-11-15T16:55:26;51.83;;;21.70;;
65202;SDS011;51788;45.124;38.966;2022-11-15T16:57:54;64.95;;;21.20;;
65202;SDS011;51788;45.124;38.966;2022-11-15T17:00:22;52.05;;;20.27;;
65202;SDS011;51788;45.124;38.966;2022-11-15T17:02:49;36.03;;;19.63;;
65202;SDS011;51788;45.124;38.966;2022-11-15T17:05:17;39.33;;;19.00;;
65202;SDS011;51788;45.124;38.966;2022-11-15T17:07:45;27.40;;;15.23;;
65202;SDS011;51788;45.124;38.966;2022-11-15T17:10:18;37.00;;;16.98;;
65202;SDS011;51788;45.124;38.966;2022-11-15T17:12:49;34.33;;;13.60;;
65202;SDS011;51788;45.124;38.966;2022-11-15T17:15:15;32.95;;;16.88;;
65202;SDS011;51788;45.124;38.966;2022-11-15T17:17:42;39.47;;;16.35;;
65202;SDS011;51788;45.124;38.966;2022-11-15T17:20:15;36.97;;;18.60;;
65202;SDS011;51788;45.124;38.966;2022-11-15T17:22:42;38.38;;;16.75;;
65202;SDS011;51788;45.124;38.966;2022-11-15T17:25:08;39.45;;;17.20;;
65202;SDS011;51788;45.124;38.966;2022-11-15T17:27:34;35.92;;;16.45;;
65202;SDS011;51788;45.124;38.966;2022-11-15T17:30:00;33.17;;;14.82;;
65202;SDS011;51788;45.124;38.966;2022-11-15T17:32:26;31.60;;;17.00;;
65202;SDS011;51788;45.124;38.966;2022-11-15T17:34:52;25.27;;;14.95;;
65202;SDS011;51788;45.124;38.966;2022-11-15T17:37:18;31.17;;;17.25;;
65202;SDS011;51788;45.124;38.966;2022-11-15T17:39:45;32.70;;;17.08;;
65202;SDS011;51788;45.124;38.966;2022-11-15T17:42:11;54.63;;;24.02;;
65202;SDS011;51788;45.124;38.966;2022-11-15T17:44:37;46.72;;;22.85;;
65202;SDS011;51788;45.124;38.966;2022-11-15T17:47:03;54.25;;;25.88;;
65202;SDS011;51788;45.124;38.966;2022-11-15T17:49:30;40.60;;;24.55;;
65202;SDS011;51788;45.124;38.966;2022-11-15T17:51:56;55.78;;;26.88;;
65202;SDS011;51788;45.124;38.966;2022-11-15T17:54:22;41.28;;;24.33;;
65202;SDS011;51788;45.124;38.966;2022-11-15T17:56:48;42.30;;;25.25;;
65202;SDS011;51788;45.124;38.966;2022-11-15T17:59:14;49.53;;;27.48;;
65202;SDS011;51788;45.124;38.966;2022-11-15T18:01:40;54.03;;;29.40;;